• Join FlightAware (Why Join?)
  • Login
  • US Flag 
11:09AM EST


 

Airport Tracker/Info


-or-


 

Live Flight TrackerFlight Track Log ✈ SWA1086 ✈ 19-Apr-2013 ✈ KOKC - KMCI

Flight Track Log - Related Links

Times and Time Zones

All times are in EDT time to prevent confusion due to time zone crossing. See the SWA1086 flight status page for this flight to view local times or setup timezone preferences in your user account.

Time Position Orientation Groundspeed Altitude Reporting Facility
EDT Latitude Longitude Course Direction KTS MPH feet Rate Location/Type
11:07AM 35.4081 -97.5919 13° North 150 173 2,000  Level Fort Worth Center
11:08AM 35.4436 -97.5817 13° North 189 217 3,500 2,522 Climbing Fort Worth Center
11:09AM 35.5372 -97.5797 North 228 262 7,800 2,752 Climbing Kansas City Center
11:10AM 35.6039 -97.5808 359° North 233 268 10,700 2,361 Climbing Kansas City Center
11:11AM 35.6847 -97.5811 360° North 270 311 12,600 2,256 Climbing Kansas City Center
11:12AM 35.7736 -97.5786 North 301 346 15,400 2,667 Climbing Kansas City Center
11:13AM 35.8594 -97.5517 14° North 320 368 18,200 2,557 Climbing Kansas City Center
11:14AM 35.9617 -97.4803 29° Northeast 340 391 20,600 2,226 Climbing Kansas City Center
11:16AM 36.0500 -97.4186 29° Northeast 354 407 22,800 1,984 Climbing Kansas City Center
11:17AM 36.1428 -97.3556 29° Northeast 370 426 24,700 1,770 Climbing Kansas City Center
11:18AM 36.2372 -97.2878 30° Northeast 385 443 26,400 1,476 Climbing Kansas City Center
11:19AM 36.3367 -97.2192 29° Northeast 401 461 27,800 1,632 Climbing Kansas City Center
11:20AM 36.4372 -97.1472 30° Northeast 412 474 29,800 1,548 Climbing Kansas City Center
11:21AM 36.5567 -97.0639 29° Northeast 412 474 31,000 581 Climbing Kansas City Center
11:22AM 36.6467 -96.9997 30° Northeast 415 478 31,000  Level Kansas City Center
11:23AM 36.7500 -96.9283 29° Northeast 419 482 31,000  Level Kansas City Center
11:24AM 36.8700 -96.8422 30° Northeast 421 484 31,000  Level Kansas City Center
11:25AM 36.9728 -96.7694 29° Northeast 424 488 31,000  Level Kansas City Center
11:26AM 37.0786 -96.6936 30° Northeast 423 487 31,000  Level Kansas City Center
11:27AM 37.1758 -96.6236 30° Northeast 422 486 31,000  Level Kansas City Center
11:28AM 37.2761 -96.5508 30° Northeast 420 483 31,000  Level Kansas City Center
11:29AM 37.3778 -96.4775 30° Northeast 420 483 31,000 -97 Level Kansas City Center
11:30AM 37.4858 -96.3989 30° Northeast 420 483 30,800 -532 Descending Kansas City Center
11:31AM 37.5886 -96.3247 30° Northeast 421 484 29,900 -960 Descending Kansas City Center
11:32AM 37.7036 -96.2417 30° Northeast 425 489 28,800 -1,000 Descending Kansas City Center
11:33AM 37.8025 -96.1689 30° Northeast 415 478 27,800 -1,008 Descending Kansas City Center
11:34AM 37.9075 -96.0906 30° Northeast 402 463 26,700 -1,041 Descending Kansas City Center
11:35AM 38.0017 -96.0228 30° Northeast 397 457 25,700 -1,016 Descending Kansas City Center
11:36AM 38.1058 -95.9447 31° Northeast 391 450 24,600 -960 Descending Kansas City Center
11:37AM 38.1953 -95.8797 30° Northeast 386 444 23,700 -1,016 Descending Kansas City Center
11:38AM 38.2969 -95.8033 31° Northeast 380 437 22,500 -1,200 Descending Kansas City Center
11:39AM 38.3803 -95.7411 30° Northeast 368 423 21,200 -1,328 Descending Kansas City Center
11:40AM 38.4722 -95.6739 30° Northeast 345 397 19,800 -1,296 Descending Kansas City Center
11:41AM 38.5506 -95.6144 31° Northeast 342 394 18,500 -1,392 Descending Kansas City Center
11:42AM 38.6233 -95.5586 31° Northeast 325 374 16,900 -1,854 Descending Kansas City Center
11:43AM 38.7053 -95.4978 30° Northeast 307 353 14,700 -1,984 Descending Kansas City Center
11:44AM 38.7733 -95.4444 31° Northeast 301 346 12,800 -1,258 Descending Kansas City Center
11:45AM 38.8411 -95.3711 40° Northeast 291 335 12,100 -336 Descending Kansas City Center
11:47AM 38.8947 -95.2956 48° Northeast 297 342 12,100  Level Kansas City Center
11:48AM 38.9611 -95.2003 48° Northeast 322 371 12,100 -49 Level Kansas City Center
11:49AM 39.0178 -95.1217 47° Northeast 316 364 12,000 -94 Descending Kansas City Center
11:50AM 39.0764 -95.0372 48° Northeast 287 330 11,900 -48 Descending Kansas City Center
11:51AM 39.1231 -94.9697 48° Northeast 267 307 11,900 -347 Level Kansas City Center
11:52AM 39.1622 -94.8875 58° Northeast 259 298 11,200 -1,536 Descending Kansas City Center
11:53AM 39.1511 -94.7814 98° East 311 358 8,700 -1,968 Descending Kansas City Center
11:54AM 39.1503 -94.6600 90° East 300 345 7,100 -1,104 Descending Kansas City Center
11:55AM 39.1522 -94.5700 88° East 263 303 6,400 -677 Descending Kansas City Center
11:56AM 39.1553 -94.4686 88° East 254 292 5,700 -629 Descending Kansas City Center
11:57AM 39.2017 -94.4231 37° Northeast 225 259 5,100 -624 Descending Kansas City Center
11:58AM 39.2542 -94.4547 335° Northwest 189 217 4,400 -585 Descending Kansas City Center
11:59AM 39.2719 -94.5022 296° West 160 184 3,900 -672 Descending Kansas City Center
12:00PM 39.2772 -94.5669 276° West 163 188 3,000 -774 Descending Kansas City Center
12:01PM 39.2814 -94.6142 277° West 141 162 2,300 -793 Descending Kansas City Center
12:02PM 39.2858 -94.6667 276° West 133 153 1,400 -629 Descending Kansas City Center
12:03PM 39.2892 -94.7117 275° West 134 154 1,000 -375 Descending Kansas City Center